createdAt,value
2018-06-18T00:00:43.386Z,99545.30
2018-06-18T00:05:26.036Z,99546.75
2018-06-18T00:10:04.657Z,99547.70
2018-06-18T00:14:44.241Z,99546.74
2018-06-18T00:19:22.838Z,99540.73
2018-06-18T00:24:05.326Z,99534.33
2018-06-18T00:28:43.833Z,99527.63
2018-06-18T00:33:23.494Z,99536.23
2018-06-18T00:38:02.035Z,99546.00
2018-06-18T00:42:43.722Z,99547.58
2018-06-18T00:47:22.252Z,99549.86
2018-06-18T00:52:00.756Z,99561.85
2018-06-18T00:56:44.338Z,99558.37
2018-06-18T01:01:23.013Z,99567.20
2018-06-18T01:06:05.073Z,99562.17
2018-06-18T01:10:43.763Z,99555.59
2018-06-18T01:15:22.418Z,99569.61
2018-06-18T01:20:01.366Z,99564.09
2018-06-18T01:24:58.508Z,99567.50
2018-06-18T01:29:37.126Z,99573.55
2018-06-18T01:34:20.288Z,99577.70
2018-06-18T01:38:58.910Z,99563.70
2018-06-18T01:43:38.553Z,99556.83
2018-06-18T01:48:17.053Z,99558.74
2018-06-18T01:52:59.335Z,99546.52
2018-06-18T01:57:37.930Z,99556.94
2018-06-18T02:02:16.469Z,99560.64
2018-06-18T02:06:56.082Z,99553.39
2018-06-18T02:11:34.642Z,99536.00
2018-06-18T02:16:17.305Z,99537.30
2018-06-18T02:20:55.838Z,99544.95
2018-06-18T02:25:35.642Z,99550.83
2018-06-18T02:30:19.765Z,99559.91
2018-06-18T02:35:03.794Z,99560.58
2018-06-18T02:39:47.851Z,99564.95
2018-06-18T02:44:29.826Z,99574.08
2018-06-18T02:49:08.575Z,99572.89
2018-06-18T02:53:48.252Z,99586.58
2018-06-18T02:58:26.924Z,99588.27
2018-06-18T03:03:11.397Z,99592.06
2018-06-18T03:07:50.581Z,99585.88
2018-06-18T03:12:33.101Z,99591.44
2018-06-18T03:17:11.752Z,99595.75
2018-06-18T03:21:55.828Z,99592.86
2018-06-18T03:26:40.981Z,99596.71
2018-06-18T03:31:19.464Z,99601.54
2018-06-18T03:36:01.948Z,99593.05
2018-06-18T03:40:40.595Z,99581.84
2018-06-18T03:45:30.307Z,99588.00
2018-06-18T03:50:08.953Z,99587.89
2018-06-18T03:54:54.334Z,99595.44
2018-06-18T03:59:32.846Z,99594.66
2018-06-18T04:04:16.797Z,99581.89
2018-06-18T04:09:00.607Z,99587.14
2018-06-18T04:13:42.917Z,99592.02
2018-06-18T04:18:21.553Z,99598.14
2018-06-18T04:23:01.258Z,99600.03
2018-06-18T04:27:39.858Z,99612.06
2018-06-18T04:32:21.921Z,99601.51
2018-06-18T04:37:00.411Z,99605.52
2018-06-18T04:41:43.280Z,99604.58
2018-06-18T04:46:30.530Z,99610.41
2018-06-18T04:51:09.136Z,99603.34
2018-06-18T04:55:51.650Z,99603.89
2018-06-18T05:00:41.552Z,99605.52
2018-06-18T05:05:33.647Z,99607.92
2018-06-18T05:10:40.268Z,99607.45
2018-06-18T05:15:23.388Z,99610.72
2018-06-18T05:25:26.598Z,99621.82
2018-06-18T05:30:35.021Z,99623.13
2018-06-18T05:35:17.890Z,99625.64
2018-06-18T05:39:56.379Z,99627.80
2018-06-18T05:44:38.337Z,99635.23
2018-06-18T05:49:16.936Z,99635.48
2018-06-18T05:53:56.733Z,99632.55
2018-06-18T05:58:35.431Z,99633.30
2018-06-18T06:03:17.797Z,99630.97
2018-06-18T06:07:56.418Z,99620.59
2018-06-18T06:12:38.577Z,99630.53
2018-06-18T06:17:17.118Z,99624.80
2018-06-18T06:21:59.002Z,99619.14
2018-06-18T06:26:37.587Z,99614.11
2018-06-18T06:31:16.184Z,99614.03
2018-06-18T06:35:59.901Z,99620.25
2018-06-18T06:40:38.397Z,99623.22
2018-06-18T06:45:21.463Z,99621.41
2018-06-18T06:49:59.976Z,99617.38
2018-06-18T06:54:38.566Z,99620.48
2018-06-18T06:59:17.146Z,99624.45
2018-06-18T07:03:55.902Z,99621.09
2018-06-18T07:08:34.319Z,99622.68
2018-06-18T07:13:16.865Z,99622.76
2018-06-18T07:17:55.428Z,99617.93
2018-06-18T07:22:34.104Z,99624.70
2018-06-18T07:27:12.578Z,99631.64
2018-06-18T07:31:51.506Z,99637.93
2018-06-18T07:36:30.113Z,99638.39
2018-06-18T07:41:09.197Z,99636.61
2018-06-18T07:45:48.835Z,99633.61
2018-06-18T07:50:27.437Z,99634.00
2018-06-18T07:55:06.681Z,99641.69
2018-06-18T07:59:45.196Z,99634.89
2018-06-18T08:04:24.660Z,99640.77
2018-06-18T08:09:03.993Z,99646.09
2018-06-18T08:13:43.545Z,99643.02
2018-06-18T08:18:22.100Z,99647.11
2018-06-18T08:23:00.921Z,99638.02
2018-06-18T08:27:39.447Z,99642.49
2018-06-18T08:32:21.722Z,99642.28
2018-06-18T08:37:00.247Z,99652.28
2018-06-18T08:57:16.304Z,99642.91
2018-06-18T09:01:58.049Z,99640.34
2018-06-18T09:06:36.670Z,99643.33
2018-06-18T09:11:15.190Z,99637.95
2018-06-18T09:15:53.661Z,99635.92
2018-06-18T09:46:43.319Z,99625.30
2018-06-18T09:53:32.716Z,99619.56
2018-06-18T09:58:16.484Z,99618.38
2018-06-18T10:02:58.831Z,99608.20
2018-06-18T10:07:37.519Z,99602.05
2018-06-18T10:12:21.639Z,99614.10
2018-06-18T10:17:00.314Z,99603.22
2018-06-18T10:21:45.216Z,99601.64
2018-06-18T10:26:23.976Z,99602.91
2018-06-18T10:31:02.775Z,99613.52
2018-06-18T10:37:49.053Z,99609.61
2018-06-18T10:43:41.822Z,99602.50
2018-06-18T10:48:21.389Z,99598.13
2018-06-18T10:53:03.109Z,99596.31
2018-06-18T10:57:42.408Z,99603.55
2018-06-18T11:02:26.624Z,99593.86
2018-06-18T11:07:05.414Z,99594.58
2018-06-18T11:11:45.194Z,99593.88
2018-06-18T11:16:24.030Z,99582.78
2018-06-18T11:21:07.704Z,99578.22
2018-06-18T11:25:51.745Z,99571.31
2018-06-18T11:30:30.493Z,99583.17
2018-06-18T11:35:12.477Z,99566.41
2018-06-18T11:39:51.235Z,99561.36
2018-06-18T11:44:33.330Z,99574.63
2018-06-18T11:49:11.965Z,99568.33
2018-06-18T11:53:56.470Z,99563.22
2018-06-18T11:58:41.170Z,99582.32
2018-06-18T12:03:29.015Z,99568.33
2018-06-18T12:08:12.866Z,99572.27
2018-06-18T12:12:55.108Z,99555.03
2018-06-18T12:17:33.864Z,99556.09
2018-06-18T12:22:13.738Z,99554.80
2018-06-18T12:26:52.525Z,99563.98
2018-06-18T12:31:32.502Z,99568.49
2018-06-18T12:36:11.282Z,99569.77
2018-06-18T12:40:50.098Z,99571.66
2018-06-18T12:45:35.064Z,99575.76
2018-06-18T12:50:19.046Z,99590.09
2018-06-18T12:55:03.065Z,99588.23
2018-06-18T12:59:41.716Z,99585.30
2018-06-18T13:04:24.008Z,99582.37
2018-06-18T13:09:02.728Z,99583.39
2018-06-18T13:13:42.590Z,99580.09
2018-06-18T13:18:22.001Z,99583.30
2018-06-18T13:23:04.713Z,99586.67
2018-06-18T13:27:48.652Z,99595.77
2018-06-18T13:32:30.711Z,99602.20
2018-06-18T13:37:14.897Z,99603.52
2018-06-18T13:42:00.848Z,99586.10
2018-06-18T13:46:45.550Z,99589.98
2018-06-18T13:51:30.345Z,99593.12
2018-06-18T13:56:09.086Z,99592.80
2018-06-18T14:00:49.663Z,99598.28
2018-06-18T14:05:29.466Z,99599.12
2018-06-18T14:10:08.787Z,99593.55
2018-06-18T14:14:48.755Z,99597.99
2018-06-18T14:19:33.723Z,99600.67
2018-06-18T14:24:16.599Z,99591.20
2018-06-18T14:28:55.199Z,99590.45
2018-06-18T14:33:40.046Z,99584.60
2018-06-18T14:38:23.728Z,99581.13
2018-06-18T14:43:06.880Z,99577.09
2018-06-18T14:47:45.458Z,99584.55
2018-06-18T14:52:25.236Z,99587.23
2018-06-18T14:57:04.456Z,99589.98
2018-06-18T15:01:43.989Z,99589.94
2018-06-18T15:06:22.545Z,99587.94
2018-06-18T15:11:01.123Z,99594.75
2018-06-18T15:15:45.024Z,99611.55
2018-06-18T15:20:23.586Z,99620.98
2018-06-18T15:25:10.539Z,99627.20
2018-06-18T15:29:50.085Z,99635.84
2018-06-18T15:34:32.772Z,99651.47
2018-06-18T15:39:11.388Z,99661.10
2018-06-18T15:43:57.024Z,99670.72
2018-06-18T15:48:35.357Z,99690.05
2018-06-18T15:53:17.439Z,99686.85
2018-06-18T15:57:56.055Z,99693.12
2018-06-18T16:02:39.359Z,99694.88
2018-06-18T16:07:18.059Z,99713.22
2018-06-18T16:12:03.478Z,99723.00
2018-06-18T16:16:42.081Z,99720.57
2018-06-18T16:21:23.733Z,99715.75
2018-06-18T16:26:02.412Z,99724.41
2018-06-18T16:30:44.624Z,99721.70
2018-06-18T16:35:24.130Z,99721.38
2018-06-18T16:40:02.685Z,99724.92
2018-06-18T16:44:45.023Z,99727.13
2018-06-18T16:49:23.534Z,99721.73
2018-06-18T16:54:03.167Z,99724.91
2018-06-18T16:58:41.720Z,99731.47
2018-06-18T17:03:23.807Z,99731.98
2018-06-18T17:08:02.339Z,99728.55
2018-06-18T17:12:44.876Z,99727.04
2018-06-18T17:17:23.483Z,99735.23
2018-06-18T17:22:06.376Z,99735.44
2018-06-18T17:26:44.685Z,99733.51
2018-06-18T17:31:26.811Z,99742.00
2018-06-18T17:36:05.483Z,99755.19
2018-06-18T17:40:48.086Z,99760.09
2018-06-18T17:45:26.738Z,99758.18
2018-06-18T17:50:05.553Z,99762.48
2018-06-18T17:54:44.242Z,99763.39
2018-06-18T17:59:22.749Z,99770.03
2018-06-18T18:04:05.389Z,99770.16
2018-06-18T18:08:43.976Z,99765.56
2018-06-18T18:13:23.814Z,99775.91
2018-06-18T18:18:02.391Z,99772.39
2018-06-18T18:22:44.491Z,99780.73
2018-06-18T18:27:23.263Z,99780.73
2018-06-18T18:32:03.113Z,99788.30
2018-06-18T18:36:41.659Z,99798.80
2018-06-18T18:41:20.366Z,99796.20
2018-06-18T18:45:59.232Z,99810.70
2018-06-18T18:50:42.089Z,99818.00
2018-06-18T18:55:33.027Z,99827.75
2018-06-18T19:00:12.461Z,99827.90
2018-06-18T19:04:58.108Z,99835.92
2018-06-18T19:09:45.214Z,99843.01
2018-06-18T19:14:23.698Z,99842.88
2018-06-18T19:19:03.596Z,99845.91
2018-06-18T19:23:45.921Z,99852.58
2018-06-18T19:28:34.714Z,99848.68
2018-06-18T19:33:23.127Z,99852.27
2018-06-18T19:38:02.752Z,99848.10
2018-06-18T19:42:42.499Z,99845.30
2018-06-18T19:47:41.124Z,99842.89
2018-06-18T19:52:28.806Z,99843.80
2018-06-18T19:57:26.228Z,99843.31
2018-06-18T20:02:04.960Z,99838.00
2018-06-18T20:06:43.665Z,99832.32
2018-06-18T20:11:22.537Z,99838.02
2018-06-18T20:16:01.162Z,99837.86
2018-06-18T20:20:39.853Z,99839.00
2018-06-18T20:25:21.760Z,99838.31
2018-06-18T20:30:00.507Z,99850.69
2018-06-18T20:34:40.297Z,99851.36
2018-06-18T20:39:19.701Z,99861.18
2018-06-18T20:49:15.537Z,99855.36
2018-06-18T20:53:55.372Z,99853.25
2018-06-18T20:58:33.932Z,99854.31
2018-06-18T21:03:12.658Z,99855.31
2018-06-18T21:07:51.354Z,99858.23
2018-06-18T21:18:04.387Z,99846.97
2018-06-18T21:22:43.125Z,99853.89
2018-06-18T21:27:21.711Z,99863.00
2018-06-18T21:32:03.510Z,99874.42
2018-06-18T21:36:42.108Z,99881.30
2018-06-18T21:41:21.864Z,99882.17
2018-06-18T21:46:00.370Z,99883.62
2018-06-18T21:50:39.942Z,99882.05
2018-06-18T21:55:18.573Z,99876.14
2018-06-18T21:59:58.305Z,99871.00
2018-06-18T22:04:37.438Z,99875.80
2018-06-18T22:09:23.305Z,99868.30
2018-06-18T22:14:01.861Z,99855.14
2018-06-18T22:18:40.358Z,99852.37
2018-06-18T22:23:19.066Z,99858.61
2018-06-18T22:27:57.712Z,99853.95
2018-06-18T22:32:40.046Z,99854.02
2018-06-18T22:37:18.665Z,99856.11
2018-06-18T22:41:58.378Z,99858.28
2018-06-18T22:46:37.598Z,99861.76
2018-06-18T22:51:17.217Z,99862.84
2018-06-18T22:55:55.844Z,99863.84
2018-06-18T23:00:34.579Z,99863.91
2018-06-18T23:05:13.133Z,99863.90
2018-06-18T23:09:51.809Z,99875.46
2018-06-18T23:14:30.235Z,99875.41
2018-06-18T23:19:08.787Z,99885.92
2018-06-18T23:23:47.441Z,99885.53
2018-06-18T23:28:40.814Z,99889.88
2018-06-18T23:33:23.003Z,99879.31
2018-06-18T23:38:01.694Z,99879.80
2018-06-18T23:42:40.267Z,99872.63
2018-06-18T23:47:18.854Z,99864.86
2018-06-18T23:51:57.549Z,99868.07
2018-06-18T23:56:36.254Z,99863.37
